createdAt,value
2022-12-25T00:01:48.932Z,34.92
2022-12-25T00:04:15.489Z,30.20
2022-12-25T00:06:42.021Z,30.30
2022-12-25T00:09:08.511Z,30.27
2022-12-25T00:11:35.099Z,32.22
2022-12-25T00:14:01.761Z,32.75
2022-12-25T00:16:28.491Z,34.28
2022-12-25T00:18:56.741Z,31.70
2022-12-25T00:21:23.359Z,30.60
2022-12-25T00:23:54.573Z,30.10
2022-12-25T00:26:21.195Z,30.05
2022-12-25T00:28:47.933Z,27.83
2022-12-25T00:31:16.940Z,28.85
2022-12-25T00:33:46.840Z,29.02
2022-12-25T00:36:15.479Z,29.77
2022-12-25T00:38:43.028Z,27.92
2022-12-25T00:41:14.250Z,28.90
2022-12-25T00:43:44.520Z,27.50
2022-12-25T00:46:13.162Z,29.33
2022-12-25T00:48:40.451Z,27.42
2022-12-25T00:51:08.887Z,27.42
2022-12-25T00:53:35.412Z,27.90
2022-12-25T00:56:05.030Z,28.63
2022-12-25T00:58:33.486Z,27.90
2022-12-25T01:01:00.168Z,31.00
2022-12-25T01:03:26.909Z,32.75
2022-12-25T01:06:02.381Z,29.98
2022-12-25T01:08:30.787Z,32.80
2022-12-25T01:10:59.571Z,30.45
2022-12-25T01:13:26.305Z,28.25
2022-12-25T01:15:52.866Z,28.88
2022-12-25T01:18:20.248Z,34.92
2022-12-25T01:20:47.304Z,28.42
2022-12-25T01:23:14.383Z,32.20
2022-12-25T01:25:41.366Z,30.13
2022-12-25T01:28:08.246Z,28.08
2022-12-25T01:30:35.600Z,30.83
2022-12-25T01:33:02.176Z,28.58
2022-12-25T01:35:28.731Z,32.15
2022-12-25T01:37:55.597Z,29.35
2022-12-25T01:40:22.206Z,29.30
2022-12-25T01:42:48.723Z,28.65
2022-12-25T01:45:33.838Z,28.83
2022-12-25T01:48:08.696Z,26.80
2022-12-25T01:50:39.222Z,25.00
2022-12-25T01:53:06.926Z,24.10
2022-12-25T01:55:35.362Z,25.45
2022-12-25T01:58:02.764Z,25.20
2022-12-25T02:00:29.325Z,23.55
2022-12-25T02:02:59.598Z,21.23
2022-12-25T02:05:31.894Z,21.55
2022-12-25T02:08:02.191Z,21.48
2022-12-25T02:10:29.454Z,22.77
2022-12-25T02:12:56.287Z,23.42
2022-12-25T02:15:30.386Z,20.17
2022-12-25T02:18:02.926Z,21.38
2022-12-25T02:20:41.550Z,20.23
2022-12-25T02:23:30.012Z,19.63
2022-12-25T02:26:23.892Z,17.65
2022-12-25T02:29:03.516Z,17.40
2022-12-25T02:31:41.196Z,16.27
2022-12-25T02:34:17.240Z,14.73
2022-12-25T02:36:56.389Z,14.85
2022-12-25T02:39:57.967Z,14.57
2022-12-25T02:43:04.037Z,16.73
2022-12-25T02:45:59.243Z,15.07
2022-12-25T02:48:49.073Z,14.80
2022-12-25T02:51:45.761Z,13.85
2022-12-25T02:54:36.651Z,13.48
2022-12-25T02:57:25.998Z,14.13
2022-12-25T03:00:14.986Z,12.98
2022-12-25T03:03:02.161Z,14.00
2022-12-25T03:05:50.915Z,13.30
2022-12-25T03:11:15.736Z,13.13
2022-12-25T03:13:46.475Z,13.18
2022-12-25T03:16:31.699Z,14.13
2022-12-25T03:18:59.516Z,13.68
2022-12-25T03:21:44.691Z,14.98
2022-12-25T03:24:30.091Z,13.77
2022-12-25T03:26:57.552Z,14.05
2022-12-25T03:29:51.449Z,15.32
2022-12-25T03:32:40.989Z,15.05
2022-12-25T03:35:25.788Z,15.35
2022-12-25T03:38:24.391Z,14.85
2022-12-25T03:41:33.724Z,14.90
2022-12-25T03:44:46.452Z,14.60
2022-12-25T03:47:46.017Z,14.75
2022-12-25T03:50:55.034Z,15.13
2022-12-25T03:53:58.203Z,16.27
2022-12-25T03:56:44.650Z,15.05
2022-12-25T03:59:29.859Z,13.73
2022-12-25T04:02:15.207Z,13.07
2022-12-25T04:05:00.688Z,15.27
2022-12-25T04:07:45.862Z,13.65
2022-12-25T04:10:31.109Z,15.95
2022-12-25T04:13:16.363Z,14.38
2022-12-25T04:16:01.611Z,15.07
2022-12-25T04:18:46.606Z,15.88
2022-12-25T04:21:31.782Z,13.75
2022-12-25T04:24:16.691Z,13.90
2022-12-25T04:27:01.961Z,13.75
2022-12-25T04:29:47.248Z,14.18
2022-12-25T04:32:32.432Z,17.30
2022-12-25T04:35:17.882Z,14.00
2022-12-25T04:37:44.491Z,14.50
2022-12-25T04:40:11.362Z,14.52
2022-12-25T04:42:37.973Z,15.18
2022-12-25T04:45:05.146Z,15.43
2022-12-25T04:47:33.292Z,16.23
2022-12-25T04:49:59.886Z,15.38
2022-12-25T04:52:26.490Z,15.65
2022-12-25T04:54:53.346Z,16.20
2022-12-25T04:57:20.009Z,14.77
2022-12-25T04:59:46.743Z,14.88
2022-12-25T05:02:13.415Z,16.65
2022-12-25T05:04:40.006Z,13.93
2022-12-25T05:07:06.552Z,15.13
2022-12-25T05:09:33.051Z,16.45
2022-12-25T05:11:59.663Z,15.93
2022-12-25T05:14:26.270Z,14.77
2022-12-25T05:16:52.818Z,15.45
2022-12-25T05:19:19.321Z,15.43
2022-12-25T05:21:45.861Z,15.05
2022-12-25T05:24:12.414Z,15.48
2022-12-25T05:26:38.945Z,15.68
2022-12-25T05:29:06.069Z,15.77
2022-12-25T05:31:32.907Z,16.02
2022-12-25T05:34:03.385Z,18.30
2022-12-25T05:36:29.861Z,16.45
2022-12-25T05:38:56.429Z,16.80
2022-12-25T05:41:23.050Z,19.85
2022-12-25T05:43:49.584Z,15.80
2022-12-25T05:46:16.351Z,15.90
2022-12-25T05:48:43.000Z,16.30
2022-12-25T05:51:12.059Z,17.15
2022-12-25T05:53:39.586Z,17.02
2022-12-25T05:56:07.683Z,16.08
2022-12-25T05:58:36.391Z,16.52
2022-12-25T06:01:03.252Z,17.25
2022-12-25T06:03:30.167Z,18.85
2022-12-25T06:05:56.851Z,16.92
2022-12-25T06:08:24.174Z,16.08
2022-12-25T06:10:50.675Z,18.13
2022-12-25T06:13:18.018Z,19.08
2022-12-25T06:15:44.578Z,18.73
2022-12-25T06:18:11.120Z,18.60
2022-12-25T06:20:40.971Z,17.25
2022-12-25T06:23:07.680Z,18.25
2022-12-25T06:25:34.279Z,17.23
2022-12-25T06:28:00.982Z,19.38
2022-12-25T06:30:27.453Z,19.52
2022-12-25T06:32:54.006Z,20.33
2022-12-25T06:35:20.557Z,18.25
2022-12-25T06:37:47.036Z,18.70
2022-12-25T06:40:13.984Z,18.25
2022-12-25T06:42:40.583Z,19.60
2022-12-25T06:45:07.838Z,20.20
2022-12-25T06:47:34.528Z,20.55
2022-12-25T06:50:01.070Z,22.52
2022-12-25T06:52:27.646Z,22.00
2022-12-25T06:54:54.376Z,21.10
2022-12-25T06:57:20.957Z,22.38
2022-12-25T06:59:51.394Z,21.45
2022-12-25T07:02:23.883Z,22.35
2022-12-25T07:04:51.392Z,21.63
2022-12-25T07:07:18.148Z,23.70
2022-12-25T07:09:44.868Z,24.05
2022-12-25T07:12:20.386Z,21.13
2022-12-25T07:14:50.134Z,21.92
2022-12-25T07:17:17.873Z,21.30
2022-12-25T07:19:45.449Z,24.85
2022-12-25T07:22:12.745Z,22.42
2022-12-25T07:24:39.245Z,20.02
2022-12-25T07:27:06.117Z,22.25
2022-12-25T07:29:32.796Z,23.02
2022-12-25T07:31:59.442Z,22.73
2022-12-25T07:34:26.436Z,20.65
2022-12-25T07:36:54.752Z,41.03
2022-12-25T07:39:21.413Z,24.27
2022-12-25T07:41:47.971Z,23.63
2022-12-25T07:44:15.042Z,21.33
2022-12-25T07:46:41.692Z,21.45
2022-12-25T07:49:08.173Z,22.15
2022-12-25T07:51:34.857Z,22.00
2022-12-25T07:54:01.521Z,20.83
2022-12-25T07:56:28.340Z,21.70
2022-12-25T07:58:54.970Z,22.92
2022-12-25T08:01:27.125Z,23.38
2022-12-25T08:03:56.491Z,20.23
2022-12-25T08:06:26.884Z,20.23
2022-12-25T08:08:53.445Z,21.35
2022-12-25T08:11:20.007Z,22.13
2022-12-25T08:13:46.557Z,22.23
2022-12-25T08:16:13.245Z,19.70
2022-12-25T08:18:40.663Z,33.03
2022-12-25T08:21:10.537Z,33.78
2022-12-25T08:23:39.540Z,22.80
2022-12-25T08:26:08.504Z,20.33
2022-12-25T08:28:36.098Z,21.25
2022-12-25T08:31:16.924Z,21.95
2022-12-25T08:33:44.310Z,22.20
2022-12-25T08:36:12.781Z,23.20
2022-12-25T08:38:39.680Z,27.25
2022-12-25T08:41:06.923Z,24.80
2022-12-25T08:43:33.457Z,21.63
2022-12-25T08:46:00.112Z,21.90
2022-12-25T08:48:27.550Z,23.60
2022-12-25T08:50:54.824Z,22.25
2022-12-25T08:53:21.595Z,23.33
2022-12-25T08:55:48.075Z,24.17
2022-12-25T08:58:14.767Z,21.60
2022-12-25T09:00:41.347Z,22.23
2022-12-25T09:03:07.971Z,20.73
2022-12-25T09:05:36.136Z,23.02
2022-12-25T09:08:02.869Z,22.58
2022-12-25T09:10:29.855Z,23.08
2022-12-25T09:12:56.450Z,25.02
2022-12-25T09:15:22.982Z,22.60
2022-12-25T09:17:49.457Z,22.38
2022-12-25T09:20:15.954Z,22.08
2022-12-25T09:22:42.501Z,23.58
2022-12-25T09:25:09.490Z,23.15
2022-12-25T09:27:36.229Z,47.50
2022-12-25T09:30:03.212Z,27.55
2022-12-25T09:32:29.737Z,24.13
2022-12-25T09:34:56.215Z,22.50
2022-12-25T09:37:22.750Z,23.08
2022-12-25T09:39:49.309Z,21.42
2022-12-25T09:42:34.616Z,23.02
2022-12-25T09:45:05.852Z,20.80
2022-12-25T09:47:35.981Z,20.80
2022-12-25T09:50:13.933Z,20.40
2022-12-25T09:52:55.233Z,20.40
2022-12-25T09:55:24.598Z,21.48
2022-12-25T09:57:59.432Z,20.33
2022-12-25T10:00:33.676Z,20.83
2022-12-25T10:03:22.132Z,20.02
2022-12-25T10:08:54.254Z,19.10
2022-12-25T10:11:52.978Z,20.40
2022-12-25T10:14:41.223Z,20.50
2022-12-25T10:17:33.229Z,20.95
2022-12-25T10:20:07.995Z,18.83
2022-12-25T10:22:40.691Z,21.83
2022-12-25T10:25:17.085Z,21.75
2022-12-25T10:27:43.702Z,21.13
2022-12-25T10:30:24.692Z,20.42
2022-12-25T10:32:52.879Z,19.08
2022-12-25T10:35:23.113Z,19.92
2022-12-25T10:37:58.681Z,20.75
2022-12-25T10:40:31.377Z,19.60
2022-12-25T10:43:08.163Z,20.17
2022-12-25T10:45:46.687Z,18.45
2022-12-25T10:48:28.013Z,18.25
2022-12-25T10:50:55.857Z,18.27
2022-12-25T10:53:25.985Z,18.48
2022-12-25T10:56:00.052Z,17.77
2022-12-25T10:58:27.585Z,19.55
2022-12-25T11:01:02.442Z,18.35
2022-12-25T11:03:35.930Z,17.85
2022-12-25T11:06:03.020Z,17.45
2022-12-25T11:08:33.201Z,19.15
2022-12-25T11:11:08.176Z,17.52
2022-12-25T11:13:40.818Z,16.52
2022-12-25T11:16:13.133Z,16.25
2022-12-25T11:18:51.498Z,15.30
2022-12-25T11:21:30.479Z,17.33
2022-12-25T11:24:01.610Z,15.32
2022-12-25T11:26:30.310Z,15.88
2022-12-25T11:28:57.724Z,14.93
2022-12-25T11:31:39.510Z,18.05
2022-12-25T11:34:28.743Z,23.10
2022-12-25T11:36:55.746Z,21.17
2022-12-25T11:39:36.157Z,17.20
2022-12-25T11:42:08.619Z,14.68
2022-12-25T11:44:46.701Z,14.90
2022-12-25T11:47:27.834Z,15.60
2022-12-25T11:50:38.697Z,15.93
2022-12-25T11:53:27.434Z,15.32
2022-12-25T11:56:10.316Z,15.80
2022-12-25T11:58:44.189Z,15.85
2022-12-25T12:01:18.965Z,16.05
2022-12-25T12:03:45.811Z,15.75
2022-12-25T12:06:44.401Z,15.85
2022-12-25T12:09:47.656Z,15.57
2022-12-25T12:12:26.831Z,15.05
2022-12-25T12:15:07.433Z,13.98
2022-12-25T12:17:34.116Z,16.02
2022-12-25T12:20:11.995Z,16.13
2022-12-25T12:22:39.349Z,14.60
2022-12-25T12:25:07.985Z,16.13
2022-12-25T12:27:40.485Z,16.67
2022-12-25T12:30:28.083Z,16.27
2022-12-25T12:33:01.258Z,15.88
2022-12-25T12:35:34.213Z,15.88
2022-12-25T12:38:04.630Z,15.52
2022-12-25T12:40:33.728Z,15.65
2022-12-25T12:43:00.823Z,15.75
2022-12-25T12:45:32.282Z,15.57
2022-12-25T12:47:59.243Z,15.90
2022-12-25T12:50:41.064Z,15.68
2022-12-25T12:53:16.637Z,15.15
2022-12-25T12:55:43.183Z,13.63
2022-12-25T12:58:25.146Z,15.55
2022-12-25T13:01:26.851Z,14.13
2022-12-25T13:04:28.686Z,15.52
2022-12-25T13:06:59.227Z,16.83
2022-12-25T13:09:52.065Z,20.58
2022-12-25T13:12:20.224Z,20.67
2022-12-25T13:14:48.181Z,15.13
2022-12-25T13:17:18.792Z,15.95
2022-12-25T13:19:46.221Z,16.60
2022-12-25T13:22:30.997Z,19.17
2022-12-25T13:24:59.803Z,17.67
2022-12-25T13:27:29.345Z,17.80
2022-12-25T13:29:56.758Z,15.38
2022-12-25T13:32:29.905Z,16.20
2022-12-25T13:34:57.173Z,15.65
2022-12-25T13:37:27.114Z,14.10
2022-12-25T13:39:55.553Z,15.52
2022-12-25T13:42:33.832Z,15.55
2022-12-25T13:45:06.275Z,15.57
2022-12-25T13:47:34.000Z,14.63
2022-12-25T13:50:14.307Z,15.90
2022-12-25T13:52:40.820Z,16.02
2022-12-25T13:55:36.789Z,19.00
2022-12-25T13:58:05.907Z,16.55
2022-12-25T14:00:35.172Z,16.83
2022-12-25T14:03:04.402Z,26.77
2022-12-25T14:05:42.071Z,26.95
2022-12-25T14:08:16.113Z,21.08
2022-12-25T14:10:46.047Z,25.48
2022-12-25T14:13:14.634Z,22.05
2022-12-25T14:15:41.980Z,17.10
2022-12-25T14:18:15.712Z,16.42
2022-12-25T14:21:07.280Z,18.33
2022-12-25T14:23:54.435Z,28.17
2022-12-25T14:26:24.124Z,18.77
2022-12-25T14:28:54.252Z,19.02
2022-12-25T14:31:21.880Z,16.15
2022-12-25T14:33:49.164Z,18.80
2022-12-25T14:36:16.204Z,16.90
2022-12-25T14:38:44.273Z,14.93
2022-12-25T14:41:33.566Z,16.30
2022-12-25T14:44:02.495Z,17.15
2022-12-25T14:46:31.387Z,19.50
2022-12-25T14:49:02.976Z,18.65
2022-12-25T14:51:31.795Z,19.58
2022-12-25T14:54:01.980Z,20.38
2022-12-25T14:56:38.147Z,20.08
2022-12-25T14:59:09.641Z,22.15
2022-12-25T15:01:41.929Z,18.83
2022-12-25T15:04:11.577Z,21.80
2022-12-25T15:06:54.905Z,22.13
2022-12-25T15:09:22.977Z,19.63
2022-12-25T15:11:51.312Z,22.55
2022-12-25T15:14:17.926Z,22.45
2022-12-25T15:16:51.249Z,22.27
2022-12-25T15:19:25.397Z,20.20
2022-12-25T15:21:53.941Z,22.30
2022-12-25T15:24:20.430Z,20.38
2022-12-25T15:26:47.442Z,21.58
2022-12-25T15:29:13.920Z,22.25
2022-12-25T15:31:41.237Z,21.92
2022-12-25T15:34:17.265Z,21.95
2022-12-25T15:36:43.770Z,22.35
2022-12-25T15:39:10.297Z,23.02
2022-12-25T15:41:56.875Z,23.35
2022-12-25T15:44:24.249Z,23.20
2022-12-25T15:46:51.001Z,23.08
2022-12-25T15:49:18.047Z,22.55
2022-12-25T15:51:45.578Z,22.77
2022-12-25T15:54:12.575Z,24.23
2022-12-25T15:56:45.576Z,25.70
2022-12-25T15:59:13.844Z,24.48
2022-12-25T16:01:47.297Z,23.67
2022-12-25T16:04:13.975Z,24.45
2022-12-25T16:06:40.811Z,22.85
2022-12-25T16:09:09.551Z,24.83
2022-12-25T16:11:36.134Z,24.67
2022-12-25T16:14:02.701Z,25.33
2022-12-25T16:16:29.259Z,24.90
2022-12-25T16:18:55.760Z,24.48
2022-12-25T16:21:23.840Z,23.88
2022-12-25T16:23:50.460Z,22.85
2022-12-25T16:26:17.374Z,23.73
2022-12-25T16:28:43.956Z,23.00
2022-12-25T16:31:11.741Z,25.70
2022-12-25T16:33:38.461Z,27.02
2022-12-25T16:36:05.994Z,25.52
2022-12-25T16:38:32.573Z,25.95
2022-12-25T16:41:00.662Z,25.13
2022-12-25T16:43:27.843Z,24.60
2022-12-25T16:45:54.480Z,24.88
2022-12-25T16:48:21.205Z,25.70
2022-12-25T16:50:47.719Z,25.95
2022-12-25T16:53:14.275Z,26.63
2022-12-25T16:55:40.883Z,26.23
2022-12-25T16:58:07.683Z,26.30
2022-12-25T17:00:34.220Z,26.55
2022-12-25T17:03:01.357Z,27.38
2022-12-25T17:05:28.137Z,29.40
2022-12-25T17:07:54.637Z,27.00
2022-12-25T17:10:21.822Z,28.08
2022-12-25T17:12:48.318Z,26.85
2022-12-25T17:15:14.913Z,25.63
2022-12-25T17:17:41.762Z,27.75
2022-12-25T17:20:08.890Z,25.83
2022-12-25T17:22:35.429Z,25.75
2022-12-25T17:25:02.068Z,26.92
2022-12-25T17:27:28.621Z,27.50
2022-12-25T17:29:55.202Z,27.60
2022-12-25T17:32:21.893Z,27.15
2022-12-25T17:34:48.512Z,28.20
2022-12-25T17:37:15.185Z,27.38
2022-12-25T17:39:41.884Z,27.55
2022-12-25T17:42:08.349Z,28.60
2022-12-25T17:44:34.912Z,29.98
2022-12-25T17:47:01.699Z,29.48
2022-12-25T17:49:28.275Z,27.63
2022-12-25T17:51:54.944Z,30.42
2022-12-25T17:54:21.504Z,28.95
2022-12-25T17:56:48.281Z,29.13
2022-12-25T17:59:18.617Z,30.38
2022-12-25T18:01:46.865Z,29.48
2022-12-25T18:04:13.979Z,29.23
2022-12-25T18:06:41.688Z,29.05
2022-12-25T18:09:09.861Z,28.27
2022-12-25T18:11:39.414Z,28.17
2022-12-25T18:14:07.957Z,31.33
2022-12-25T18:16:38.416Z,32.42
2022-12-25T18:19:05.844Z,32.13
2022-12-25T18:21:32.478Z,34.60
2022-12-25T18:23:58.972Z,33.20
2022-12-25T18:26:26.140Z,33.78
2022-12-25T18:28:52.933Z,36.08
2022-12-25T18:31:22.348Z,35.80
2022-12-25T18:33:50.178Z,38.03
2022-12-25T18:36:20.390Z,42.47
2022-12-25T18:38:48.922Z,31.42
2022-12-25T18:41:16.095Z,30.83
2022-12-25T18:43:52.320Z,31.23
2022-12-25T18:46:25.880Z,28.08
2022-12-25T18:48:56.160Z,28.90
2022-12-25T18:51:22.942Z,31.90
2022-12-25T18:53:49.855Z,33.38
2022-12-25T18:56:18.242Z,31.58
2022-12-25T18:58:46.358Z,32.90
2022-12-25T19:01:17.320Z,29.77
2022-12-25T19:03:45.410Z,34.78
2022-12-25T19:06:19.837Z,33.22
2022-12-25T19:08:46.636Z,33.00
2022-12-25T19:11:13.359Z,33.13
2022-12-25T19:13:40.020Z,33.22
2022-12-25T19:16:06.713Z,35.00
2022-12-25T19:18:33.291Z,32.63
2022-12-25T19:21:04.674Z,34.40
2022-12-25T19:23:31.536Z,33.15
2022-12-25T19:25:58.203Z,39.90
2022-12-25T19:28:25.355Z,34.25
2022-12-25T19:30:54.020Z,36.63
2022-12-25T19:33:21.830Z,42.28
2022-12-25T19:35:49.035Z,36.97
2022-12-25T19:38:16.483Z,39.35
2022-12-25T19:41:00.752Z,41.63
2022-12-25T19:43:33.734Z,30.17
2022-12-25T19:46:01.861Z,33.22
2022-12-25T19:48:29.408Z,32.80
2022-12-25T19:50:56.038Z,32.47
2022-12-25T19:53:25.436Z,42.65
2022-12-25T19:55:53.675Z,35.25
2022-12-25T19:58:21.727Z,33.28
2022-12-25T20:01:05.177Z,29.17
2022-12-25T20:03:33.169Z,30.23
2022-12-25T20:06:00.171Z,27.88
2022-12-25T20:08:26.673Z,30.38
2022-12-25T20:10:53.292Z,32.83
2022-12-25T20:13:20.622Z,33.55
2022-12-25T20:15:47.272Z,31.50
2022-12-25T20:18:14.492Z,29.70
2022-12-25T20:20:41.241Z,35.20
2022-12-25T20:23:07.781Z,31.20
2022-12-25T20:25:34.523Z,34.03
2022-12-25T20:28:01.048Z,50.90
2022-12-25T20:30:27.681Z,31.92
2022-12-25T20:32:55.292Z,30.15
2022-12-25T20:35:21.842Z,33.45
2022-12-25T20:37:48.545Z,33.53
2022-12-25T20:40:16.260Z,50.67
2022-12-25T20:42:43.469Z,36.83
2022-12-25T20:45:12.549Z,30.25
2022-12-25T20:47:39.274Z,27.90
2022-12-25T20:50:06.521Z,28.33
2022-12-25T20:52:32.991Z,28.58
2022-12-25T20:54:59.495Z,26.17
2022-12-25T20:57:26.132Z,32.20
2022-12-25T20:59:53.535Z,27.08
2022-12-25T21:02:35.977Z,28.77
2022-12-25T21:05:05.088Z,42.13
2022-12-25T21:07:31.625Z,38.22
2022-12-25T21:09:59.220Z,35.95
2022-12-25T21:12:26.132Z,31.50
2022-12-25T21:14:52.621Z,30.00
2022-12-25T21:17:19.246Z,52.63
2022-12-25T21:19:45.849Z,37.38
2022-12-25T21:22:12.754Z,38.25
2022-12-25T21:24:39.244Z,27.65
2022-12-25T21:27:05.740Z,35.10
2022-12-25T21:29:32.298Z,34.85
2022-12-25T21:32:17.225Z,42.80
2022-12-25T21:34:43.899Z,28.38
2022-12-25T21:37:10.377Z,27.00
2022-12-25T21:39:37.019Z,28.92
2022-12-25T21:42:04.725Z,26.80
2022-12-25T21:44:31.279Z,23.35
2022-12-25T21:46:57.876Z,35.85
2022-12-25T21:49:43.054Z,26.63
2022-12-25T21:52:09.828Z,22.70
2022-12-25T21:54:36.776Z,24.52
2022-12-25T21:57:03.566Z,27.38
2022-12-25T21:59:30.164Z,37.08
2022-12-25T22:01:56.836Z,32.33
2022-12-25T22:04:23.717Z,30.23
2022-12-25T22:07:09.253Z,34.72
2022-12-25T22:09:36.008Z,32.47
2022-12-25T22:12:21.841Z,41.05
2022-12-25T22:14:54.945Z,35.95
2022-12-25T22:17:45.538Z,29.88
2022-12-25T22:20:15.774Z,24.38
2022-12-25T22:22:42.729Z,29.10
2022-12-25T22:25:10.971Z,26.90
2022-12-25T22:27:39.292Z,33.05
2022-12-25T22:30:08.269Z,31.88
2022-12-25T22:32:34.915Z,32.75
2022-12-25T22:35:01.496Z,29.10
2022-12-25T22:37:28.133Z,30.10
2022-12-25T22:39:54.732Z,30.20
2022-12-25T22:42:21.610Z,33.10
2022-12-25T22:44:48.292Z,30.33
2022-12-25T22:47:15.449Z,32.33
2022-12-25T22:49:42.078Z,29.30
2022-12-25T22:52:09.918Z,29.83
2022-12-25T22:54:36.919Z,26.45
2022-12-25T22:57:03.775Z,28.33
2022-12-25T22:59:30.381Z,30.58
2022-12-25T23:01:57.092Z,30.40
2022-12-25T23:04:24.053Z,26.48
2022-12-25T23:06:51.371Z,23.85
2022-12-25T23:09:24.793Z,23.35
2022-12-25T23:11:51.661Z,22.33
2022-12-25T23:14:36.757Z,23.63
2022-12-25T23:17:03.325Z,23.27
2022-12-25T23:19:48.538Z,23.67
2022-12-25T23:22:33.981Z,15.32
2022-12-25T23:25:18.937Z,22.75
2022-12-25T23:27:46.048Z,15.15
2022-12-25T23:30:15.614Z,20.85
2022-12-25T23:32:44.016Z,19.85
2022-12-25T23:35:11.503Z,22.35
2022-12-25T23:37:38.081Z,20.50
2022-12-25T23:40:05.182Z,17.38
2022-12-25T23:42:31.664Z,22.08
2022-12-25T23:44:58.208Z,22.75
2022-12-25T23:47:24.740Z,22.75
2022-12-25T23:49:51.365Z,23.10
2022-12-25T23:52:17.854Z,24.33
2022-12-25T23:54:44.355Z,20.80
2022-12-25T23:57:10.821Z,21.88
2022-12-25T23:59:37.282Z,22.35
